Startpagina
METAR-TAF:

METAR-TAF

Vliegvelden :

Luchthaven Irkoetsk

Irkoetsk, Rusland

breedte: 52-16N, lengte: 104-19E, hoogte: 513 m

Actueel weer

Dit bericht is 23 minuten geleden gemaakt, om 17:30 UTC
Weinig wind
Temperatuur 17°C
Vochtigheid 94%
Druk 1004 hPa
Zicht 10 km of meer
geen wolken onder 1500 m en geen cumulonimbus

METAR: UIII 181730Z 00000MPS CAVOK 17/16 Q1004 R30/60D NOSIG RMK QFE709/0946

Tijdstip: 01:53 (17:53 UTC)

Verwachting

Dit bericht is 53 minuten geleden gemaakt, om 17:00 UTC
Verwachting geldig van 18 om 18 UTC tot 19 om 18 UTC
Wind 6 kt uit het oostzuidoosten
Zicht 10 km of meer
Verspreide wolken op 2000 ft, Cumulonimbus.
Tijdelijke
van 18 om 18 UTC tot 19 om 02 UTC
Zicht: 0500 m
op 200 ft
mist

TAF: UIII 181700Z 1818/1918 11003MPS 9999 SCT020CB TEMPO 1818/1902 0500 FG VV002

Waarnemingen en weersverwachtingen van meer dan 4000 vliegvelden (METAR en TAF).

De beschikbare stations zijn de gele en rode punten op de kaart.

Ga met uw muis naar het station om de naam te zien.

Klik dan om waarnemingen en weersverwachtingen te zien.

kaart wijzigen: klik op de groene knoppen met een zwart kruis om in te zoomen, op de groene knop met een streepje om uit te zoomen of op de groene pijlen voor aangrenzende kaarten.


METAR-TAF: